sensor_id;sensor_type;location;lat;lon;timestamp;P1;durP1;ratioP1;P2;durP2;ratioP2
14153;SDS011;7157;53.144;7.570;2023-05-02T00:01:04;13.10;;;6.32;;
14153;SDS011;7157;53.144;7.570;2023-05-02T00:11:08;12.70;;;6.32;;
14153;SDS011;7157;53.144;7.570;2023-05-02T00:21:10;14.57;;;6.95;;
14153;SDS011;7157;53.144;7.570;2023-05-02T00:31:15;20.98;;;8.18;;
14153;SDS011;7157;53.144;7.570;2023-05-02T00:41:18;13.57;;;7.13;;
14153;SDS011;7157;53.144;7.570;2023-05-02T00:51:22;9.70;;;4.70;;
14153;SDS011;7157;53.144;7.570;2023-05-02T01:01:28;5.82;;;2.42;;
14153;SDS011;7157;53.144;7.570;2023-05-02T01:11:43;5.95;;;2.67;;
14153;SDS011;7157;53.144;7.570;2023-05-02T01:21:49;8.38;;;3.00;;
14153;SDS011;7157;53.144;7.570;2023-05-02T01:31:55;4.50;;;1.80;;
14153;SDS011;7157;53.144;7.570;2023-05-02T01:42:00;3.92;;;1.40;;
14153;SDS011;7157;53.144;7.570;2023-05-02T01:52:06;4.53;;;1.90;;
14153;SDS011;7157;53.144;7.570;2023-05-02T02:02:11;9.50;;;2.60;;
14153;SDS011;7157;53.144;7.570;2023-05-02T02:12:19;11.85;;;2.70;;
14153;SDS011;7157;53.144;7.570;2023-05-02T02:22:27;11.98;;;2.95;;
14153;SDS011;7157;53.144;7.570;2023-05-02T02:32:32;17.55;;;3.45;;
14153;SDS011;7157;53.144;7.570;2023-05-02T02:42:36;5.88;;;2.00;;
14153;SDS011;7157;53.144;7.570;2023-05-02T02:52:49;17.23;;;2.63;;
14153;SDS011;7157;53.144;7.570;2023-05-02T03:02:56;20.25;;;3.08;;
14153;SDS011;7157;53.144;7.570;2023-05-02T03:13:01;7.90;;;2.30;;
14153;SDS011;7157;53.144;7.570;2023-05-02T03:23:03;12.23;;;2.78;;
14153;SDS011;7157;53.144;7.570;2023-05-02T03:33:07;9.27;;;2.65;;
14153;SDS011;7157;53.144;7.570;2023-05-02T03:43:10;18.80;;;3.25;;
14153;SDS011;7157;53.144;7.570;2023-05-02T03:53:14;14.20;;;3.03;;
14153;SDS011;7157;53.144;7.570;2023-05-02T04:03:17;15.50;;;2.65;;
14153;SDS011;7157;53.144;7.570;2023-05-02T04:13:21;13.23;;;2.85;;
14153;SDS011;7157;53.144;7.570;2023-05-02T04:23:24;8.63;;;2.05;;
14153;SDS011;7157;53.144;7.570;2023-05-02T04:33:28;16.20;;;2.88;;
14153;SDS011;7157;53.144;7.570;2023-05-02T04:43:31;15.98;;;2.40;;
14153;SDS011;7157;53.144;7.570;2023-05-02T04:53:35;6.13;;;1.92;;
14153;SDS011;7157;53.144;7.570;2023-05-02T05:03:38;15.80;;;2.63;;
14153;SDS011;7157;53.144;7.570;2023-05-02T05:13:42;5.82;;;1.80;;
14153;SDS011;7157;53.144;7.570;2023-05-02T05:23:45;15.13;;;2.65;;
14153;SDS011;7157;53.144;7.570;2023-05-02T05:33:49;11.63;;;1.80;;
14153;SDS011;7157;53.144;7.570;2023-05-02T05:43:52;9.77;;;2.70;;
14153;SDS011;7157;53.144;7.570;2023-05-02T05:53:57;20.90;;;3.95;;
14153;SDS011;7157;53.144;7.570;2023-05-02T06:04:00;16.48;;;2.20;;
14153;SDS011;7157;53.144;7.570;2023-05-02T06:14:06;9.45;;;2.30;;
14153;SDS011;7157;53.144;7.570;2023-05-02T06:24:09;9.90;;;2.58;;
14153;SDS011;7157;53.144;7.570;2023-05-02T06:34:13;7.68;;;2.17;;
14153;SDS011;7157;53.144;7.570;2023-05-02T06:44:15;10.32;;;2.03;;
14153;SDS011;7157;53.144;7.570;2023-05-02T06:54:19;11.38;;;3.20;;
14153;SDS011;7157;53.144;7.570;2023-05-02T07:04:22;13.85;;;2.13;;
14153;SDS011;7157;53.144;7.570;2023-05-02T07:14:27;11.95;;;2.15;;
14153;SDS011;7157;53.144;7.570;2023-05-02T07:24:30;7.72;;;2.28;;
14153;SDS011;7157;53.144;7.570;2023-05-02T07:34:34;10.00;;;2.10;;
14153;SDS011;7157;53.144;7.570;2023-05-02T07:44:37;13.88;;;2.20;;
14153;SDS011;7157;53.144;7.570;2023-05-02T07:54:41;9.73;;;2.33;;
14153;SDS011;7157;53.144;7.570;2023-05-02T08:04:44;9.65;;;1.98;;
14153;SDS011;7157;53.144;7.570;2023-05-02T08:14:48;5.57;;;1.60;;
14153;SDS011;7157;53.144;7.570;2023-05-02T08:24:50;7.18;;;1.83;;
14153;SDS011;7157;53.144;7.570;2023-05-02T08:34:55;5.82;;;1.98;;
14153;SDS011;7157;53.144;7.570;2023-05-02T08:44:58;5.75;;;1.52;;
14153;SDS011;7157;53.144;7.570;2023-05-02T08:55:03;5.78;;;1.33;;
14153;SDS011;7157;53.144;7.570;2023-05-02T09:05:08;4.53;;;1.33;;
14153;SDS011;7157;53.144;7.570;2023-05-02T09:15:15;2.33;;;0.85;;
14153;SDS011;7157;53.144;7.570;2023-05-02T09:25:21;7.03;;;0.93;;
14153;SDS011;7157;53.144;7.570;2023-05-02T09:35:25;7.95;;;2.15;;
14153;SDS011;7157;53.144;7.570;2023-05-02T09:45:28;8.63;;;1.52;;
14153;SDS011;7157;53.144;7.570;2023-05-02T09:55:32;3.25;;;0.90;;
14153;SDS011;7157;53.144;7.570;2023-05-02T10:05:35;6.05;;;1.00;;
14153;SDS011;7157;53.144;7.570;2023-05-02T10:15:42;4.03;;;1.00;;
14153;SDS011;7157;53.144;7.570;2023-05-02T10:25:46;5.00;;;1.10;;
14153;SDS011;7157;53.144;7.570;2023-05-02T10:35:52;5.95;;;0.90;;
14153;SDS011;7157;53.144;7.570;2023-05-02T10:45:55;4.95;;;1.10;;
14153;SDS011;7157;53.144;7.570;2023-05-02T10:56:15;4.93;;;1.23;;
14153;SDS011;7157;53.144;7.570;2023-05-02T11:06:21;3.13;;;0.77;;
14153;SDS011;7157;53.144;7.570;2023-05-02T11:16:25;4.25;;;1.23;;
14153;SDS011;7157;53.144;7.570;2023-05-02T11:26:28;4.93;;;1.23;;
14153;SDS011;7157;53.144;7.570;2023-05-02T11:36:34;3.80;;;1.02;;
14153;SDS011;7157;53.144;7.570;2023-05-02T11:46:37;4.80;;;0.93;;
14153;SDS011;7157;53.144;7.570;2023-05-02T11:56:42;5.68;;;0.95;;
14153;SDS011;7157;53.144;7.570;2023-05-02T12:06:53;4.25;;;0.88;;
14153;SDS011;7157;53.144;7.570;2023-05-02T12:16:58;3.95;;;1.13;;
14153;SDS011;7157;53.144;7.570;2023-05-02T12:27:08;4.53;;;0.88;;
14153;SDS011;7157;53.144;7.570;2023-05-02T12:37:20;3.53;;;0.60;;
14153;SDS011;7157;53.144;7.570;2023-05-02T12:47:23;2.70;;;0.80;;
14153;SDS011;7157;53.144;7.570;2023-05-02T12:57:28;4.20;;;0.85;;
14153;SDS011;7157;53.144;7.570;2023-05-02T13:07:30;2.83;;;0.88;;
14153;SDS011;7157;53.144;7.570;2023-05-02T13:17:34;2.53;;;0.68;;
14153;SDS011;7157;53.144;7.570;2023-05-02T13:27:37;3.15;;;0.60;;
14153;SDS011;7157;53.144;7.570;2023-05-02T13:37:42;1.92;;;0.70;;
14153;SDS011;7157;53.144;7.570;2023-05-02T13:47:45;6.40;;;1.00;;
14153;SDS011;7157;53.144;7.570;2023-05-02T13:57:49;3.45;;;0.75;;
14153;SDS011;7157;53.144;7.570;2023-05-02T14:07:51;4.10;;;0.77;;
14153;SDS011;7157;53.144;7.570;2023-05-02T14:17:55;5.82;;;0.80;;
14153;SDS011;7157;53.144;7.570;2023-05-02T14:27:59;7.20;;;1.20;;
14153;SDS011;7157;53.144;7.570;2023-05-02T14:38:04;3.70;;;0.95;;
14153;SDS011;7157;53.144;7.570;2023-05-02T14:48:06;5.68;;;0.80;;
14153;SDS011;7157;53.144;7.570;2023-05-02T14:58:12;2.97;;;0.65;;
14153;SDS011;7157;53.144;7.570;2023-05-02T15:08:20;3.83;;;0.67;;
14153;SDS011;7157;53.144;7.570;2023-05-02T15:18:24;4.97;;;0.75;;
14153;SDS011;7157;53.144;7.570;2023-05-02T15:28:27;4.40;;;0.80;;
14153;SDS011;7157;53.144;7.570;2023-05-02T15:38:31;3.13;;;0.68;;
14153;SDS011;7157;53.144;7.570;2023-05-02T15:48:34;3.40;;;1.10;;
14153;SDS011;7157;53.144;7.570;2023-05-02T15:58:39;5.28;;;0.70;;
14153;SDS011;7157;53.144;7.570;2023-05-02T16:08:41;5.20;;;0.98;;
14153;SDS011;7157;53.144;7.570;2023-05-02T16:18:45;2.78;;;0.88;;
14153;SDS011;7157;53.144;7.570;2023-05-02T16:28:48;5.70;;;0.98;;
14153;SDS011;7157;53.144;7.570;2023-05-02T16:38:52;3.22;;;1.00;;
14153;SDS011;7157;53.144;7.570;2023-05-02T16:48:55;6.95;;;0.80;;
14153;SDS011;7157;53.144;7.570;2023-05-02T16:58:59;3.80;;;0.90;;
14153;SDS011;7157;53.144;7.570;2023-05-02T17:09:02;3.22;;;0.70;;
14153;SDS011;7157;53.144;7.570;2023-05-02T17:19:06;5.18;;;0.90;;
14153;SDS011;7157;53.144;7.570;2023-05-02T17:29:08;3.05;;;0.82;;
14153;SDS011;7157;53.144;7.570;2023-05-02T17:39:12;6.65;;;1.30;;
14153;SDS011;7157;53.144;7.570;2023-05-02T17:49:16;7.90;;;1.17;;
14153;SDS011;7157;53.144;7.570;2023-05-02T17:59:20;2.88;;;1.00;;
14153;SDS011;7157;53.144;7.570;2023-05-02T18:09:22;4.75;;;1.35;;
14153;SDS011;7157;53.144;7.570;2023-05-02T18:19:26;8.45;;;1.45;;
14153;SDS011;7157;53.144;7.570;2023-05-02T18:29:29;1.67;;;0.65;;
14153;SDS011;7157;53.144;7.570;2023-05-02T18:39:33;2.88;;;0.90;;
14153;SDS011;7157;53.144;7.570;2023-05-02T18:49:36;3.13;;;1.10;;
14153;SDS011;7157;53.144;7.570;2023-05-02T18:59:41;6.38;;;1.20;;
14153;SDS011;7157;53.144;7.570;2023-05-02T19:09:43;2.83;;;1.00;;
14153;SDS011;7157;53.144;7.570;2023-05-02T19:19:48;2.55;;;0.90;;
14153;SDS011;7157;53.144;7.570;2023-05-02T19:29:52;5.43;;;1.13;;
14153;SDS011;7157;53.144;7.570;2023-05-02T19:39:56;4.93;;;1.08;;
14153;SDS011;7157;53.144;7.570;2023-05-02T19:49:59;2.33;;;1.10;;
14153;SDS011;7157;53.144;7.570;2023-05-02T20:00:04;3.50;;;1.70;;
14153;SDS011;7157;53.144;7.570;2023-05-02T20:10:07;9.60;;;2.10;;
14153;SDS011;7157;53.144;7.570;2023-05-02T20:20:12;2.92;;;1.27;;
14153;SDS011;7157;53.144;7.570;2023-05-02T20:30:15;5.22;;;1.50;;
14153;SDS011;7157;53.144;7.570;2023-05-02T20:40:19;5.65;;;1.45;;
14153;SDS011;7157;53.144;7.570;2023-05-02T20:50:22;3.50;;;1.60;;
14153;SDS011;7157;53.144;7.570;2023-05-02T21:00:26;3.70;;;1.63;;
14153;SDS011;7157;53.144;7.570;2023-05-02T21:10:29;7.22;;;2.40;;
14153;SDS011;7157;53.144;7.570;2023-05-02T21:20:34;5.90;;;2.40;;
14153;SDS011;7157;53.144;7.570;2023-05-02T21:30:38;8.13;;;2.35;;
14153;SDS011;7157;53.144;7.570;2023-05-02T21:40:42;4.13;;;1.85;;
14153;SDS011;7157;53.144;7.570;2023-05-02T21:50:45;6.78;;;2.00;;
14153;SDS011;7157;53.144;7.570;2023-05-02T22:00:49;3.72;;;2.17;;
14153;SDS011;7157;53.144;7.570;2023-05-02T22:10:52;4.85;;;1.85;;
14153;SDS011;7157;53.144;7.570;2023-05-02T22:20:56;4.15;;;1.77;;
14153;SDS011;7157;53.144;7.570;2023-05-02T22:30:58;9.18;;;2.28;;
14153;SDS011;7157;53.144;7.570;2023-05-02T22:41:02;6.95;;;2.28;;
14153;SDS011;7157;53.144;7.570;2023-05-02T22:51:06;9.70;;;2.40;;
14153;SDS011;7157;53.144;7.570;2023-05-02T23:01:10;9.02;;;2.55;;
14153;SDS011;7157;53.144;7.570;2023-05-02T23:11:13;10.00;;;4.07;;
14153;SDS011;7157;53.144;7.570;2023-05-02T23:21:18;9.93;;;2.80;;
14153;SDS011;7157;53.144;7.570;2023-05-02T23:31:21;7.40;;;3.60;;
14153;SDS011;7157;53.144;7.570;2023-05-02T23:41:25;9.90;;;3.47;;
14153;SDS011;7157;53.144;7.570;2023-05-02T23:51:28;8.00;;;2.63;;
